Time;durP1;ratioP1;P1;durP2;ratioP2;P2;SDS_P1;SDS_P2;PMS_P1;PMS_P2;Temp;Humidity;BMP_temperature;BMP_pressure;BME280_temperature;BME280_humidity;BME280_pressure;Samples;Min_cycle;Max_cycle;Signal;HPM_P1;HPM_P2
2021/05/02 00:00:04;;;;;;;40.13;33.23;;;9.20;99.90;;;;;;5033458;28;20425;-61
2021/05/02 00:02:30;;;;;;;41.37;33.33;;;9.30;99.90;;;;;;5033917;28;20450;-58
2021/05/02 00:04:56;;;;;;;39.40;33.63;;;9.40;99.90;;;;;;5033773;28;20474;-60
2021/05/02 00:07:21;;;;;;;36.43;30.07;;;9.30;99.90;;;;;;5033463;28;20461;-59
2021/05/02 00:09:47;;;;;;;31.07;27.77;;;9.30;99.90;;;;;;5033015;28;20172;-59
2021/05/02 00:12:12;;;;;;;34.83;29.97;;;9.30;99.90;;;;;;5033427;28;20201;-59
2021/05/02 00:14:38;;;;;;;38.27;34.10;;;9.20;99.90;;;;;;5034067;28;20250;-59
2021/05/02 00:17:06;;;;;;;35.17;30.27;;;9.20;99.90;;;;;;5035467;28;20188;-59
2021/05/02 00:19:33;;;;;;;38.00;33.33;;;9.20;99.90;;;;;;5034978;28;20235;-58
2021/05/02 00:21:59;;;;;;;37.00;29.17;;;9.10;99.90;;;;;;5034203;28;20439;-60
2021/05/02 00:24:26;;;;;;;35.20;30.67;;;9.10;99.90;;;;;;5033524;28;20414;-60
2021/05/02 00:26:52;;;;;;;32.47;28.97;;;8.90;99.90;;;;;;5032849;28;20820;-59
2021/05/02 00:29:18;;;;;;;34.93;30.93;;;9.00;99.90;;;;;;5033183;28;20407;-60
2021/05/02 00:31:45;;;;;;;31.10;27.80;;;8.90;99.90;;;;;;5033363;28;20403;-60
2021/05/02 00:34:12;;;;;;;36.23;30.83;;;8.90;99.90;;;;;;5033109;28;20807;-60
2021/05/02 00:36:38;;;;;;;34.43;30.43;;;9.20;99.90;;;;;;5033217;28;20779;-60
2021/05/02 00:39:06;;;;;;;36.30;29.97;;;9.10;99.90;;;;;;5032810;28;20427;-60
2021/05/02 00:41:34;;;;;;;31.80;28.40;;;9.00;99.90;;;;;;5032803;28;20463;-60
2021/05/02 00:44:16;;;;;;;33.33;29.23;;;9.00;99.90;;;;;;5021796;28;20506;-58
2021/05/02 00:46:56;;;;;;;32.63;29.30;;;8.90;99.90;;;;;;5013296;28;20850;-60
2021/05/02 00:49:31;;;;;;;32.47;28.97;;;8.80;99.90;;;;;;5023821;28;20440;-60
2021/05/02 00:52:00;;;;;;;32.40;29.00;;;8.90;99.90;;;;;;5032746;28;20495;-60
2021/05/02 00:54:38;;;;;;;33.83;29.07;;;8.90;99.90;;;;;;5033438;28;20849;-60
2021/05/02 00:57:10;;;;;;;30.47;27.30;;;8.90;99.90;;;;;;5032576;28;20462;-60
2021/05/02 01:00:02;;;;;;;34.70;31.00;;;8.90;99.90;;;;;;5015217;28;20425;-60
2021/05/02 01:02:29;;;;;;;32.90;28.90;;;9.00;99.90;;;;;;5032270;28;20442;-60
2021/05/02 01:05:00;;;;;;;31.23;28.13;;;8.80;99.90;;;;;;5032860;28;20513;-59
2021/05/02 01:07:33;;;;;;;34.33;30.87;;;9.00;99.90;;;;;;5032589;28;20442;-60
2021/05/02 01:10:05;;;;;;;33.60;30.00;;;8.90;99.90;;;;;;5033214;28;20387;-59
2021/05/02 01:12:31;;;;;;;31.83;28.00;;;9.10;99.90;;;;;;5015197;28;20428;-60
2021/05/02 01:14:58;;;;;;;34.33;30.73;;;9.10;99.90;;;;;;5033226;28;20474;-60
2021/05/02 01:17:26;;;;;;;30.13;26.70;;;9.00;99.90;;;;;;5032863;28;20423;-60
2021/05/02 01:19:53;;;;;;;36.40;32.60;;;9.00;99.90;;;;;;5033087;28;20521;-60
2021/05/02 01:22:21;;;;;;;30.07;26.93;;;8.90;99.90;;;;;;5035737;28;20551;-60
2021/05/02 01:24:51;;;;;;;33.33;29.90;;;9.00;99.90;;;;;;5033119;28;20454;-59
2021/05/02 01:27:31;;;;;;;33.80;30.20;;;9.00;99.90;;;;;;5027162;28;20826;-59
2021/05/02 01:29:58;;;;;;;32.97;29.57;;;8.80;99.90;;;;;;5036129;28;20391;-60
2021/05/02 01:32:26;;;;;;;34.37;30.87;;;8.90;99.90;;;;;;5036163;28;20429;-60
2021/05/02 01:34:53;;;;;;;35.20;31.53;;;8.90;99.90;;;;;;5036527;28;20476;-60
2021/05/02 01:37:19;;;;;;;32.50;29.10;;;8.70;99.90;;;;;;5018785;28;20411;-61
2021/05/02 01:39:46;;;;;;;31.53;28.23;;;8.80;99.90;;;;;;5035700;28;20421;-60
2021/05/02 01:42:12;;;;;;;29.60;26.70;;;8.80;99.90;;;;;;5035795;28;20482;-59
2021/05/02 01:44:37;;;;;;;31.33;28.00;;;8.60;99.90;;;;;;5036029;28;20407;-60
2021/05/02 01:47:14;;;;;;;30.70;27.47;;;8.70;99.90;;;;;;5036329;28;20257;-59
2021/05/02 01:49:53;;;;;;;34.50;30.77;;;8.80;99.90;;;;;;5036276;28;20255;-60
2021/05/02 01:52:20;;;;;;;32.10;28.90;;;8.90;99.90;;;;;;5057744;23;20465;-58
2021/05/02 01:54:47;;;;;;;30.47;27.40;;;8.90;99.90;;;;;;5015485;28;20931;-58
2021/05/02 01:57:25;;;;;;;34.47;30.90;;;8.60;99.90;;;;;;5015470;28;20411;-58
2021/05/02 01:59:53;;;;;;;31.17;27.87;;;8.70;99.90;;;;;;5015482;28;20385;-58
2021/05/02 02:02:20;;;;;;;31.73;27.63;;;8.70;99.90;;;;;;4997887;28;20435;-57
2021/05/02 02:04:51;;;;;;;30.50;27.20;;;8.70;99.90;;;;;;5015768;28;20456;-57
2021/05/02 02:07:18;;;;;;;34.30;30.70;;;8.80;99.90;;;;;;5015479;28;20441;-58
2021/05/02 02:09:45;;;;;;;31.30;28.10;;;8.80;99.90;;;;;;5015638;28;20503;-58
2021/05/02 02:12:11;;;;;;;31.57;28.30;;;8.90;99.90;;;;;;5015040;28;20409;-57
2021/05/02 02:14:38;;;;;;;30.93;27.63;;;8.70;99.90;;;;;;5015675;28;20407;-54
2021/05/02 02:17:06;;;;;;;37.60;33.50;;;8.50;99.90;;;;;;5015327;28;20429;-57
2021/05/02 02:19:32;;;;;;;38.40;34.20;;;8.50;99.90;;;;;;5015398;28;20415;-56
2021/05/02 02:21:59;;;;;;;34.60;30.90;;;8.60;99.90;;;;;;5015199;28;20458;-58
2021/05/02 02:24:45;;;;;;;34.70;31.03;;;8.60;99.90;;;;;;5015362;28;20411;-58
2021/05/02 02:27:12;;;;;;;34.13;30.40;;;8.50;99.90;;;;;;5015456;28;20834;-58
2021/05/02 02:29:46;;;;;;;38.40;34.30;;;8.30;99.90;;;;;;5015089;28;20457;-57
2021/05/02 02:32:15;;;;;;;37.37;33.30;;;8.40;99.90;;;;;;5014673;28;20390;-55
2021/05/02 02:34:47;;;;;;;42.43;35.90;;;8.50;99.90;;;;;;5015816;28;20940;-58
2021/05/02 02:37:20;;;;;;;41.53;37.17;;;8.50;99.90;;;;;;5014881;28;20434;-56
2021/05/02 02:39:53;;;;;;;37.23;32.30;;;8.50;99.90;;;;;;5017350;28;20463;-58
2021/05/02 02:42:23;;;;;;;33.47;29.87;;;8.60;99.90;;;;;;5014694;28;20450;-58
2021/05/02 02:44:58;;;;;;;38.07;33.97;;;8.50;99.90;;;;;;5014809;28;20466;-58
2021/05/02 02:47:33;;;;;;;36.40;32.50;;;8.60;99.90;;;;;;5014576;28;20448;-58
2021/05/02 02:50:00;;;;;;;37.40;33.40;;;8.80;99.90;;;;;;5014989;28;20905;-56
2021/05/02 02:52:27;;;;;;;32.63;29.20;;;8.70;99.90;;;;;;5014496;28;20861;-58
2021/05/02 02:55:03;;;;;;;35.87;32.27;;;8.60;99.90;;;;;;5014794;28;20444;-57
2021/05/02 02:57:36;;;;;;;35.83;31.87;;;8.60;99.90;;;;;;5014261;28;20434;-57
2021/05/02 03:00:04;;;;;;;34.60;31.00;;;8.80;99.90;;;;;;5014488;28;20888;-54
2021/05/02 03:02:31;;;;;;;34.33;30.83;;;8.60;99.90;;;;;;5014273;28;20956;-56
2021/05/02 03:04:58;;;;;;;38.70;34.50;;;8.60;99.90;;;;;;5013767;28;20423;-56
2021/05/02 03:07:24;;;;;;;36.00;32.07;;;8.70;99.90;;;;;;5014278;28;20807;-58
2021/05/02 03:09:51;;;;;;;33.83;30.13;;;8.80;99.90;;;;;;5014297;28;20414;-55
2021/05/02 03:12:21;;;;;;;37.53;33.60;;;8.70;99.90;;;;;;5014418;28;20779;-58
2021/05/02 03:14:51;;;;;;;33.90;30.37;;;8.70;99.90;;;;;;5014221;28;20384;-56
2021/05/02 03:17:22;;;;;;;36.60;33.00;;;8.60;99.90;;;;;;5014382;28;20495;-57
2021/05/02 03:20:04;;;;;;;34.03;30.37;;;8.70;99.90;;;;;;5014010;28;20398;-57
2021/05/02 03:22:50;;;;;;;36.57;32.70;;;8.80;99.90;;;;;;5013988;28;20960;-55
2021/05/02 03:25:21;;;;;;;32.70;29.50;;;8.60;99.90;;;;;;5014075;28;20819;-57
2021/05/02 03:27:51;;;;;;;33.73;30.33;;;8.60;99.90;;;;;;5014156;28;20441;-55
2021/05/02 03:30:20;;;;;;;41.77;37.53;;;8.60;99.90;;;;;;5013748;28;20431;-56
2021/05/02 03:32:49;;;;;;;36.63;32.80;;;8.70;99.90;;;;;;5013838;28;20518;-55
2021/05/02 03:35:17;;;;;;;33.57;30.07;;;8.80;99.90;;;;;;5013485;28;20418;-53
2021/05/02 03:37:49;;;;;;;36.83;32.90;;;8.80;99.90;;;;;;5013843;28;20407;-55
2021/05/02 03:40:16;;;;;;;37.83;34.10;;;8.90;99.90;;;;;;5013719;28;20904;-56
2021/05/02 03:42:42;;;;;;;37.63;33.73;;;8.80;99.90;;;;;;5014189;28;20847;-58
2021/05/02 03:45:08;;;;;;;40.40;36.27;;;8.90;99.90;;;;;;5013378;28;20445;-58
2021/05/02 03:47:34;;;;;;;32.90;29.60;;;9.10;99.90;;;;;;5013843;28;20203;-58
2021/05/02 03:49:59;;;;;;;34.23;30.70;;;9.10;99.90;;;;;;5013814;28;20819;-57
2021/05/02 03:52:25;;;;;;;33.30;30.00;;;9.10;99.90;;;;;;5013445;28;20195;-57
2021/05/02 03:54:54;;;;;;;35.77;32.00;;;9.30;99.90;;;;;;5013923;28;20228;-57
2021/05/02 03:57:20;;;;;;;31.43;28.33;;;9.40;99.90;;;;;;5013588;28;20170;-56
2021/05/02 03:59:46;;;;;;;34.40;30.87;;;9.40;99.90;;;;;;5013473;28;20775;-58
2021/05/02 04:02:13;;;;;;;38.03;34.23;;;9.40;99.90;;;;;;5013663;28;20408;-57
2021/05/02 04:04:41;;;;;;;34.00;30.40;;;9.50;99.90;;;;;;5013391;28;20419;-58
2021/05/02 04:07:11;;;;;;;34.73;31.20;;;9.50;99.90;;;;;;5013552;28;20450;-58
2021/05/02 04:09:45;;;;;;;33.70;30.27;;;9.50;99.90;;;;;;5013619;28;20397;-57
2021/05/02 04:12:11;;;;;;;36.47;32.57;;;9.50;99.90;;;;;;5013319;28;20436;-58
2021/05/02 04:14:37;;;;;;;30.33;27.23;;;9.40;99.90;;;;;;5013127;28;20415;-58
2021/05/02 04:17:11;;;;;;;33.23;29.90;;;9.40;99.90;;;;;;5012640;28;20451;-59
2021/05/02 04:19:39;;;;;;;35.67;32.03;;;9.40;99.90;;;;;;5002221;28;20423;-58
2021/05/02 04:22:06;;;;;;;39.23;35.23;;;9.40;99.90;;;;;;4993881;28;20493;-57
2021/05/02 04:24:32;;;;;;;40.70;36.57;;;9.50;99.90;;;;;;4993832;28;20428;-57
2021/05/02 04:27:00;;;;;;;39.03;34.87;;;9.40;99.90;;;;;;4993854;28;20475;-56
2021/05/02 04:29:28;;;;;;;34.47;31.10;;;9.30;99.90;;;;;;4993836;28;20410;-58
2021/05/02 04:31:54;;;;;;;35.17;31.60;;;9.40;99.90;;;;;;4993660;28;20925;-58
2021/05/02 04:34:20;;;;;;;36.27;32.53;;;9.50;99.90;;;;;;5004795;28;20514;-58
2021/05/02 04:36:47;;;;;;;34.30;30.80;;;9.30;99.90;;;;;;5013101;28;20439;-58
2021/05/02 04:39:13;;;;;;;42.53;37.90;;;9.20;99.90;;;;;;5013127;28;20451;-58
2021/05/02 04:41:38;;;;;;;47.30;42.20;;;9.10;99.90;;;;;;5013115;28;20440;-60
2021/05/02 04:44:04;;;;;;;40.70;36.47;;;9.10;99.90;;;;;;5013040;28;20252;-58
2021/05/02 04:46:30;;;;;;;40.03;35.93;;;9.10;99.90;;;;;;5015707;28;20196;-58
2021/05/02 04:48:56;;;;;;;37.70;33.90;;;9.20;99.90;;;;;;5013059;28;20419;-58
2021/05/02 04:51:22;;;;;;;39.80;35.80;;;9.10;99.90;;;;;;5013115;28;20414;-58
2021/05/02 04:53:49;;;;;;;42.80;38.33;;;9.00;99.90;;;;;;5012806;28;20213;-58
2021/05/02 04:56:14;;;;;;;39.60;35.60;;;9.00;99.90;;;;;;5017095;28;20522;-58
2021/05/02 04:58:42;;;;;;;37.90;34.07;;;9.10;99.90;;;;;;5017389;28;20411;-58
2021/05/02 05:01:08;;;;;;;36.97;33.07;;;9.20;99.90;;;;;;5016552;28;20659;-55
2021/05/02 05:03:34;;;;;;;38.07;34.37;;;9.30;99.90;;;;;;5016752;28;20463;-56
2021/05/02 05:06:00;;;;;;;41.50;35.57;;;9.30;99.90;;;;;;5016258;28;20412;-58
2021/05/02 05:08:26;;;;;;;40.03;35.60;;;9.30;99.90;;;;;;5016570;28;20901;-55
2021/05/02 05:10:52;;;;;;;36.43;32.73;;;9.40;99.90;;;;;;5016469;28;20160;-55
2021/05/02 05:13:17;;;;;;;38.87;34.83;;;9.40;99.90;;;;;;5016160;28;20426;-58
2021/05/02 05:15:43;;;;;;;34.97;31.37;;;9.40;99.90;;;;;;5016423;28;20188;-57
2021/05/02 05:18:09;;;;;;;36.00;32.47;;;9.50;99.90;;;;;;5016796;28;20220;-56
2021/05/02 05:20:34;;;;;;;38.67;34.80;;;9.50;99.90;;;;;;5016220;28;20162;-57
2021/05/02 05:23:00;;;;;;;36.03;32.50;;;9.50;99.90;;;;;;5016244;28;20195;-57
2021/05/02 05:25:26;;;;;;;39.07;34.97;;;9.50;99.90;;;;;;5016469;28;20167;-58
2021/05/02 05:27:51;;;;;;;36.03;32.40;;;9.50;99.90;;;;;;5016142;28;20247;-58
2021/05/02 05:30:17;;;;;;;36.03;32.50;;;9.60;99.90;;;;;;5016386;28;20220;-56
2021/05/02 05:32:43;;;;;;;34.27;31.07;;;9.70;99.90;;;;;;5016459;28;20552;-58
2021/05/02 05:35:09;;;;;;;33.67;30.47;;;9.70;99.90;;;;;;5015972;28;20176;-58
2021/05/02 05:37:34;;;;;;;34.17;30.70;;;9.80;99.90;;;;;;5015984;28;20179;-58
2021/05/02 05:40:00;;;;;;;35.13;31.63;;;9.70;99.90;;;;;;5016392;28;20768;-57
2021/05/02 05:42:26;;;;;;;39.77;35.77;;;9.70;99.90;;;;;;5015951;28;20268;-57
2021/05/02 05:44:51;;;;;;;36.40;32.50;;;9.70;99.90;;;;;;5016472;28;20188;-57
2021/05/02 05:47:17;;;;;;;34.33;30.83;;;9.70;99.90;;;;;;5016137;28;20196;-57
2021/05/02 05:49:43;;;;;;;35.47;31.80;;;9.70;99.90;;;;;;5016037;28;20198;-57
2021/05/02 05:52:09;;;;;;;39.73;35.53;;;9.90;99.90;;;;;;5015964;28;20424;-57
2021/05/02 05:54:36;;;;;;;34.87;31.43;;;10.10;99.90;;;;;;5015840;28;20173;-56
2021/05/02 05:57:03;;;;;;;37.57;33.77;;;10.10;99.90;;;;;;5015828;28;20809;-57
2021/05/02 05:59:28;;;;;;;34.07;30.73;;;10.00;99.90;;;;;;5015804;28;20412;-58
2021/05/02 06:01:54;;;;;;;33.50;30.20;;;10.00;99.90;;;;;;5015933;28;20489;-56
2021/05/02 06:04:20;;;;;;;40.90;36.90;;;10.00;99.90;;;;;;5015483;28;20236;-57
2021/05/02 06:06:45;;;;;;;33.00;29.90;;;10.10;99.90;;;;;;5015336;28;20625;-55
2021/05/02 06:09:11;;;;;;;33.00;29.87;;;10.20;99.90;;;;;;5016029;28;20655;-58
2021/05/02 06:11:37;;;;;;;32.53;29.27;;;10.30;99.90;;;;;;5015429;28;20178;-57
2021/05/02 06:14:04;;;;;;;30.30;27.30;;;10.40;99.90;;;;;;5015495;28;20193;-57
2021/05/02 06:16:30;;;;;;;31.60;28.50;;;10.50;99.90;;;;;;5015706;28;20492;-57
2021/05/02 06:18:57;;;;;;;34.60;31.20;;;10.60;99.90;;;;;;5016155;28;20414;-57
2021/05/02 06:21:23;;;;;;;28.70;26.10;;;10.80;99.90;;;;;;5015011;28;20410;-57
2021/05/02 06:23:50;;;;;;;31.40;28.50;;;10.70;99.90;;;;;;5015158;28;20558;-57
2021/05/02 06:26:18;;;;;;;32.03;28.73;;;10.60;99.90;;;;;;5015099;28;20454;-57
2021/05/02 06:28:45;;;;;;;30.40;27.53;;;10.50;99.90;;;;;;5015074;28;20428;-56
2021/05/02 06:31:11;;;;;;;26.83;24.10;;;10.60;99.90;;;;;;5015809;28;20498;-58
2021/05/02 06:33:38;;;;;;;31.70;28.67;;;10.50;99.90;;;;;;5014875;28;20428;-57
2021/05/02 06:36:04;;;;;;;29.00;26.10;;;10.50;99.90;;;;;;5014652;28;20497;-58
2021/05/02 06:38:30;;;;;;;28.20;25.57;;;10.50;99.90;;;;;;5014830;28;20403;-58
2021/05/02 06:40:56;;;;;;;28.97;26.10;;;10.10;99.90;;;;;;5014852;28;20919;-56
2021/05/02 06:43:22;;;;;;;28.93;26.17;;;10.10;99.90;;;;;;5014545;28;20554;-56
2021/05/02 06:45:48;;;;;;;25.67;23.23;;;10.00;99.90;;;;;;5014500;28;20164;-58
2021/05/02 06:48:13;;;;;;;28.20;25.60;;;10.20;99.90;;;;;;5013507;28;20413;-57
2021/05/02 06:50:39;;;;;;;27.10;24.50;;;10.20;99.90;;;;;;5014375;28;20257;-56
2021/05/02 06:53:05;;;;;;;28.47;25.60;;;10.20;99.90;;;;;;5014592;28;20214;-56
2021/05/02 06:55:30;;;;;;;25.13;22.87;;;10.30;99.90;;;;;;5017137;28;20160;-57
2021/05/02 06:57:59;;;;;;;26.57;24.00;;;10.20;99.90;;;;;;5014506;28;20197;-57
2021/05/02 07:00:24;;;;;;;27.87;25.27;;;10.20;99.90;;;;;;5014706;28;20194;-56
2021/05/02 07:02:50;;;;;;;24.97;22.67;;;10.40;99.90;;;;;;5014453;28;20829;-56
2021/05/02 07:05:16;;;;;;;26.20;23.77;;;10.50;99.90;;;;;;5014020;28;20415;-56
2021/05/02 07:07:41;;;;;;;28.47;25.87;;;10.60;99.90;;;;;;5014256;28;20202;-56
2021/05/02 07:10:08;;;;;;;25.87;23.40;;;10.80;99.90;;;;;;5011266;28;20165;-57
2021/05/02 07:12:33;;;;;;;25.53;23.20;;;10.60;99.90;;;;;;5005655;28;20214;-57
2021/05/02 07:14:59;;;;;;;23.67;21.47;;;10.40;99.90;;;;;;5015324;28;20410;-56
2021/05/02 07:17:25;;;;;;;23.23;21.03;;;10.60;99.90;;;;;;5014291;28;20181;-56
2021/05/02 07:19:51;;;;;;;25.50;23.10;;;10.40;99.90;;;;;;5014076;28;20199;-57
2021/05/02 07:22:18;;;;;;;21.80;19.80;;;10.60;99.90;;;;;;5013838;28;20443;-56
2021/05/02 07:24:45;;;;;;;23.03;20.83;;;10.80;99.90;;;;;;5013694;28;20178;-56
2021/05/02 07:27:11;;;;;;;22.83;20.73;;;11.10;99.90;;;;;;5013927;28;20461;-56
2021/05/02 07:29:36;;;;;;;23.93;21.63;;;11.00;99.90;;;;;;5014275;28;20781;-57
2021/05/02 07:32:02;;;;;;;22.57;20.50;;;11.30;99.90;;;;;;5014436;28;20168;-58
2021/05/02 07:34:28;;;;;;;22.13;20.13;;;11.40;99.90;;;;;;5013655;28;20184;-55
2021/05/02 07:36:57;;;;;;;20.83;18.83;;;11.70;99.90;;;;;;5014313;28;20175;-57
2021/05/02 07:39:23;;;;;;;20.90;19.03;;;11.50;99.90;;;;;;5013807;28;20275;-55
2021/05/02 07:41:48;;;;;;;20.93;19.07;;;11.30;99.90;;;;;;5013392;28;20407;-53
2021/05/02 07:44:14;;;;;;;19.27;17.57;;;11.40;99.90;;;;;;5013805;28;20438;-54
2021/05/02 07:46:40;;;;;;;23.00;20.67;;;11.20;99.90;;;;;;5013650;28;20199;-57
2021/05/02 07:49:06;;;;;;;22.10;20.00;;;11.20;99.90;;;;;;5013712;28;20568;-56
2021/05/02 07:51:32;;;;;;;22.00;20.00;;;11.30;99.90;;;;;;5013661;28;20172;-57
2021/05/02 07:53:58;;;;;;;19.47;17.57;;;11.60;99.90;;;;;;5048996;23;20512;-58
2021/05/02 07:56:24;;;;;;;18.97;17.20;;;11.60;99.90;;;;;;5033703;28;20394;-61
2021/05/02 07:58:50;;;;;;;18.20;16.50;;;11.70;99.90;;;;;;5033555;28;20167;-61
2021/05/02 08:01:16;;;;;;;19.23;17.40;;;12.10;99.90;;;;;;5033726;28;20398;-61
2021/05/02 08:03:41;;;;;;;18.93;17.33;;;12.20;99.90;;;;;;5033400;28;20187;-60
2021/05/02 08:06:07;;;;;;;18.20;16.57;;;11.80;99.90;;;;;;5032561;28;20172;-60
2021/05/02 08:08:33;;;;;;;19.37;17.47;;;11.70;99.90;;;;;;5033689;28;20167;-60
2021/05/02 08:10:58;;;;;;;21.03;18.97;;;11.70;99.90;;;;;;5033697;28;20202;-59
2021/05/02 08:13:24;;;;;;;19.13;17.37;;;11.70;99.90;;;;;;5034437;28;20180;-60
2021/05/02 08:15:49;;;;;;;18.43;16.73;;;11.40;99.90;;;;;;5033532;28;20175;-60
2021/05/02 08:18:15;;;;;;;18.80;17.20;;;11.30;99.90;;;;;;5033442;28;20677;-59
2021/05/02 08:20:41;;;;;;;20.23;18.23;;;11.20;99.90;;;;;;5033027;28;20172;-59
2021/05/02 08:23:07;;;;;;;18.90;17.10;;;11.10;99.90;;;;;;5033488;28;20554;-60
2021/05/02 08:25:33;;;;;;;18.47;16.77;;;11.40;99.90;;;;;;5033703;28;20169;-59
2021/05/02 08:27:59;;;;;;;18.23;16.63;;;11.60;99.90;;;;;;5033522;28;20445;-60
2021/05/02 08:30:24;;;;;;;21.27;19.17;;;11.60;99.90;;;;;;5035653;28;20195;-60
2021/05/02 08:32:50;;;;;;;17.73;16.23;;;11.60;99.90;;;;;;5037080;28;20648;-60
2021/05/02 08:35:15;;;;;;;19.67;17.77;;;11.90;99.90;;;;;;5036707;28;20167;-60
2021/05/02 08:37:41;;;;;;;19.67;17.70;;;12.10;99.90;;;;;;5036298;28;20195;-58
2021/05/02 08:40:09;;;;;;;18.77;17.00;;;12.20;99.90;;;;;;5029389;28;20171;-60
2021/05/02 08:42:34;;;;;;;17.20;15.80;;;12.50;99.90;;;;;;5029102;28;20188;-60
2021/05/02 08:45:01;;;;;;;18.80;17.13;;;12.50;99.90;;;;;;5037484;28;20500;-58
2021/05/02 08:47:27;;;;;;;18.60;16.83;;;12.60;99.90;;;;;;5037287;28;20190;-60
2021/05/02 08:49:53;;;;;;;17.93;16.33;;;12.80;99.90;;;;;;5019435;28;20425;-59
2021/05/02 08:52:19;;;;;;;19.60;17.80;;;12.90;99.90;;;;;;5036905;28;20508;-58
2021/05/02 08:54:46;;;;;;;17.37;15.83;;;12.90;99.90;;;;;;5036664;28;20449;-60
2021/05/02 08:57:12;;;;;;;18.57;16.97;;;12.60;99.90;;;;;;5036819;28;20179;-58
2021/05/02 08:59:39;;;;;;;17.83;16.23;;;12.80;99.90;;;;;;5036636;28;20405;-60
2021/05/02 09:02:05;;;;;;;19.20;17.40;;;12.70;99.90;;;;;;5037181;28;20402;-60
2021/05/02 09:04:30;;;;;;;20.40;18.60;;;12.90;99.90;;;;;;5039226;28;20433;-60
2021/05/02 09:06:56;;;;;;;18.67;17.00;;;12.90;99.90;;;;;;5036277;28;20441;-60
2021/05/02 09:09:24;;;;;;;18.73;17.00;;;12.80;99.90;;;;;;5036651;28;20164;-60
2021/05/02 09:11:52;;;;;;;18.70;17.00;;;13.00;99.90;;;;;;5038307;28;20158;-59
2021/05/02 09:14:22;;;;;;;18.00;16.30;;;13.00;99.90;;;;;;5036319;28;20779;-59
2021/05/02 09:16:53;;;;;;;18.83;17.10;;;13.30;99.90;;;;;;5036766;28;20405;-60
2021/05/02 09:19:20;;;;;;;18.00;16.30;;;13.40;99.90;;;;;;5036943;28;20399;-59
2021/05/02 09:21:47;;;;;;;21.03;19.13;;;13.30;99.90;;;;;;5036029;28;20404;-59
2021/05/02 09:24:31;;;;;;;19.50;17.77;;;13.10;99.90;;;;;;5036537;28;20839;-60
2021/05/02 09:27:13;;;;;;;18.27;16.67;;;12.80;99.10;;;;;;5036661;28;20433;-60
2021/05/02 09:29:45;;;;;;;20.10;18.20;;;12.60;99.90;;;;;;5036864;28;20384;-59
2021/05/02 09:32:12;;;;;;;18.17;16.63;;;12.50;99.90;;;;;;5037086;28;20812;-59
2021/05/02 09:34:53;;;;;;;20.10;18.23;;;12.80;99.90;;;;;;5036132;28;20508;-57
2021/05/02 09:37:23;;;;;;;18.50;16.90;;;13.10;99.90;;;;;;5036621;28;20402;-58
2021/05/02 09:39:55;;;;;;;18.43;16.63;;;13.00;99.90;;;;;;5036999;28;20757;-57
2021/05/02 09:42:35;;;;;;;19.30;17.53;;;13.50;99.90;;;;;;5035100;28;20390;-54
2021/05/02 09:45:03;;;;;;;21.27;18.43;;;13.70;98.90;;;;;;5036360;28;20386;-59
2021/05/02 09:47:38;;;;;;;16.43;15.03;;;13.80;98.20;;;;;;5036077;28;20444;-57
2021/05/02 09:50:17;;;;;;;18.93;17.30;;;13.80;97.80;;;;;;5036321;28;20412;-59
2021/05/02 09:53:13;;;;;;;18.23;16.50;;;13.60;97.90;;;;;;5036706;28;20421;-59
2021/05/02 09:55:44;;;;;;;19.07;17.27;;;13.40;97.60;;;;;;5031303;28;20430;-59
2021/05/02 09:58:15;;;;;;;19.50;17.77;;;12.90;99.00;;;;;;5036302;28;20434;-58
2021/05/02 10:00:45;;;;;;;20.93;18.93;;;12.60;99.80;;;;;;5036763;28;20394;-59
2021/05/02 10:03:19;;;;;;;22.17;20.27;;;12.30;99.90;;;;;;5036293;28;20998;-59
2021/05/02 10:06:10;;;;;;;22.87;20.80;;;12.60;99.90;;;;;;5035284;28;20422;-60
2021/05/02 10:08:38;;;;;;;20.20;18.30;;;12.70;99.90;;;;;;5035982;28;20383;-58
2021/05/02 10:11:05;;;;;;;21.07;19.17;;;12.90;99.90;;;;;;5035723;28;20402;-58
2021/05/02 10:13:32;;;;;;;21.83;19.83;;;13.10;99.90;;;;;;5035931;28;20413;-59
2021/05/02 10:15:58;;;;;;;19.77;17.83;;;13.20;99.90;;;;;;5035519;28;20411;-57
2021/05/02 10:18:24;;;;;;;18.73;17.03;;;13.40;99.90;;;;;;5035456;28;20883;-60
2021/05/02 10:20:51;;;;;;;20.90;19.00;;;13.10;99.90;;;;;;5035214;28;20213;-56
2021/05/02 10:23:18;;;;;;;20.53;18.63;;;13.10;99.90;;;;;;5017421;28;20504;-59
2021/05/02 10:25:48;;;;;;;21.13;19.20;;;13.00;99.90;;;;;;5035391;28;20794;-58
2021/05/02 10:28:22;;;;;;;18.70;17.20;;;13.30;99.90;;;;;;5035551;28;20442;-58
2021/05/02 10:30:52;;;;;;;18.03;16.20;;;13.70;98.40;;;;;;5035329;28;20409;-58
2021/05/02 10:33:38;;;;;;;18.10;16.50;;;14.00;97.70;;;;;;5034056;28;20805;-57
2021/05/02 10:36:05;;;;;;;19.53;17.67;;;13.70;96.60;;;;;;5025396;28;20421;-57
2021/05/02 10:38:49;;;;;;;16.67;15.27;;;13.40;96.70;;;;;;5034926;28;20551;-58
2021/05/02 10:41:34;;;;;;;18.10;16.60;;;13.50;97.10;;;;;;5035308;28;20825;-58
2021/05/02 10:44:12;;;;;;;17.97;16.47;;;13.60;97.60;;;;;;5034744;28;20444;-60
2021/05/02 10:46:41;;;;;;;17.80;16.30;;;13.80;95.30;;;;;;5035344;28;20535;-59
2021/05/02 10:49:07;;;;;;;18.97;17.30;;;13.70;95.60;;;;;;5034694;28;20501;-59
2021/05/02 10:51:34;;;;;;;18.53;16.70;;;14.10;95.60;;;;;;5034004;28;20416;-60
2021/05/02 10:54:33;;;;;;;16.63;15.30;;;14.40;94.60;;;;;;5033918;28;20447;-59
2021/05/02 10:57:02;;;;;;;18.73;17.13;;;15.10;93.40;;;;;;5023954;28;20423;-58
2021/05/02 11:00:00;;;;;;;17.93;16.37;;;15.40;92.60;;;;;;5034660;28;20981;-60
2021/05/02 11:02:38;;;;;;;17.57;16.10;;;16.80;91.60;;;;;;5036909;28;20409;-59
2021/05/02 11:05:05;;;;;;;17.93;16.43;;;18.00;88.10;;;;;;5034458;28;20434;-58
2021/05/02 11:07:39;;;;;;;15.47;14.17;;;18.20;83.50;;;;;;5034068;28;20453;-60
2021/05/02 11:10:08;;;;;;;16.77;15.40;;;17.30;83.50;;;;;;5034642;28;20483;-61
2021/05/02 11:12:34;;;;;;;18.33;16.63;;;16.80;83.30;;;;;;5034651;28;20484;-60
2021/05/02 11:15:00;;;;;;;18.03;16.53;;;16.20;88.20;;;;;;5034527;28;20767;-60
2021/05/02 11:17:27;;;;;;;19.87;17.80;;;15.10;90.40;;;;;;5034301;28;20900;-60
2021/05/02 11:19:54;;;;;;;18.93;17.33;;;14.80;91.40;;;;;;5033956;28;20508;-59
2021/05/02 11:22:21;;;;;;;18.13;16.53;;;14.60;91.10;;;;;;5033969;28;20412;-60
2021/05/02 11:24:51;;;;;;;18.70;17.10;;;14.60;92.00;;;;;;5034069;28;20422;-59
2021/05/02 11:27:37;;;;;;;18.67;17.10;;;14.20;91.40;;;;;;5033908;28;20975;-60
2021/05/02 11:30:06;;;;;;;19.30;17.67;;;13.90;92.60;;;;;;5034369;28;20378;-61
2021/05/02 11:32:38;;;;;;;18.93;17.33;;;13.60;94.10;;;;;;5033757;28;20416;-60
2021/05/02 11:35:14;;;;;;;21.63;19.73;;;13.10;93.70;;;;;;5033837;28;20411;-60
2021/05/02 11:37:40;;;;;;;24.57;22.30;;;12.40;96.40;;;;;;5033946;28;20410;-61
2021/05/02 11:40:17;;;;;;;22.60;20.60;;;12.20;99.90;;;;;;5034466;28;20470;-59
2021/05/02 11:43:09;;;;;;;23.87;21.77;;;12.10;99.90;;;;;;5033951;28;20187;-58
2021/05/02 11:45:50;;;;;;;22.63;20.70;;;11.70;99.90;;;;;;5034043;28;20394;-59
2021/05/02 11:48:36;;;;;;;25.13;22.70;;;11.80;99.90;;;;;;5033554;28;20433;-59
2021/05/02 11:51:06;;;;;;;24.17;21.80;;;12.00;99.90;;;;;;5033425;28;20411;-59
2021/05/02 11:53:42;;;;;;;22.10;20.30;;;12.60;99.90;;;;;;5033441;28;21001;-60
2021/05/02 11:56:15;;;;;;;22.07;20.10;;;14.70;99.90;;;;;;5033983;28;20390;-59
2021/05/02 11:58:41;;;;;;;21.77;19.87;;;16.00;99.90;;;;;;5033813;28;20385;-59
2021/05/02 12:01:13;;;;;;;17.23;15.83;;;17.20;98.70;;;;;;5033324;28;20894;-60
2021/05/02 12:03:40;;;;;;;19.67;17.73;;;18.30;97.80;;;;;;5033143;28;20925;-59
2021/05/02 12:06:08;;;;;;;15.67;14.50;;;19.10;94.60;;;;;;5032578;28;20405;-59
2021/05/02 12:08:34;;;;;;;15.03;13.83;;;19.70;91.60;;;;;;5033304;28;20413;-59
2021/05/02 12:11:04;;;;;;;13.87;12.60;;;19.10;89.20;;;;;;5033381;28;20402;-58
2021/05/02 12:13:31;;;;;;;13.83;12.70;;;18.90;90.00;;;;;;5034539;28;20770;-59
2021/05/02 12:16:18;;;;;;;13.23;12.20;;;18.00;89.20;;;;;;5033717;28;20405;-60
2021/05/02 12:18:54;;;;;;;13.13;12.00;;;17.30;91.90;;;;;;5033962;28;20976;-58
2021/05/02 12:21:19;;;;;;;13.00;11.90;;;16.60;92.40;;;;;;5033439;28;20488;-58
2021/05/02 12:23:46;;;;;;;15.33;14.00;;;15.80;92.40;;;;;;5033463;28;21041;-59
2021/05/02 12:26:13;;;;;;;14.50;13.30;;;14.50;93.10;;;;;;5033603;28;20553;-60
2021/05/02 12:28:40;;;;;;;14.20;13.00;;;14.20;95.10;;;;;;5033763;28;21052;-60
2021/05/02 12:31:07;;;;;;;13.50;12.40;;;13.80;95.60;;;;;;5034040;28;20758;-60
2021/05/02 12:33:38;;;;;;;13.70;12.60;;;13.40;96.80;;;;;;5035420;28;20426;-61
2021/05/02 12:36:05;;;;;;;14.03;12.73;;;12.60;99.90;;;;;;5033317;28;20412;-59
2021/05/02 12:38:31;;;;;;;13.40;12.30;;;12.00;99.90;;;;;;5033725;28;20409;-58